Time;durP1;ratioP1;P1;durP2;ratioP2;P2;SDS_P1;SDS_P2;PMS_P1;PMS_P2;Temp;Humidity;BMP_temperature;BMP_pressure;BME280_temperature;BME280_humidity;BME280_pressure;Samples;Min_cycle;Max_cycle;Signal;HPM_P1;HPM_P2
2021/12/06 00:02:14;;;;;;;7.35;5.63;;;0.00;99.90;;;;;;4954884;28;20043;-71
2021/12/06 00:04:46;;;;;;;9.15;4.63;;;-0.10;99.90;;;;;;4970684;28;20039;-72
2021/12/06 00:07:17;;;;;;;7.95;4.95;;;-0.20;99.90;;;;;;4971360;28;20046;-73
2021/12/06 00:09:45;;;;;;;7.97;4.68;;;-0.20;99.90;;;;;;4975593;28;20042;-73
2021/12/06 00:12:13;;;;;;;8.02;5.32;;;-0.30;99.90;;;;;;4973071;28;20089;-73
2021/12/06 00:14:41;;;;;;;8.27;4.80;;;-0.30;99.90;;;;;;4974065;28;20490;-72
2021/12/06 00:17:15;;;;;;;10.25;5.63;;;-0.30;99.90;;;;;;4975264;28;20506;-72
2021/12/06 00:19:48;;;;;;;7.15;4.43;;;-0.40;99.90;;;;;;4974830;28;20109;-72
2021/12/06 00:22:23;;;;;;;8.32;4.90;;;-0.40;99.90;;;;;;4959254;28;20077;-73
2021/12/06 00:24:56;;;;;;;7.03;4.25;;;-0.30;99.90;;;;;;4959051;28;20094;-71
2021/12/06 00:27:28;;;;;;;7.90;4.85;;;-0.30;99.90;;;;;;4975988;28;20113;-72
2021/12/06 00:30:01;;;;;;;9.88;6.13;;;-0.20;99.90;;;;;;4974663;28;20046;-73
2021/12/06 00:32:33;;;;;;;6.67;4.23;;;-0.20;99.90;;;;;;4974706;28;20070;-72
2021/12/06 00:35:06;;;;;;;7.82;4.97;;;-0.20;99.90;;;;;;4974451;28;20103;-72
2021/12/06 00:37:44;;;;;;;12.50;6.38;;;-0.20;99.90;;;;;;4975799;28;20062;-72
2021/12/06 00:40:13;;;;;;;8.95;5.57;;;-0.20;99.90;;;;;;4974630;28;20098;-73
2021/12/06 00:42:40;;;;;;;8.82;5.78;;;-0.20;99.90;;;;;;4974217;28;20564;-72
2021/12/06 00:45:12;;;;;;;10.30;6.00;;;-0.30;99.90;;;;;;4958873;28;20038;-71
2021/12/06 00:47:44;;;;;;;10.13;6.25;;;-0.30;99.90;;;;;;4958984;28;20043;-72
2021/12/06 00:50:15;;;;;;;9.60;5.50;;;-0.30;99.90;;;;;;4974430;28;20054;-72
2021/12/06 00:52:49;;;;;;;9.18;6.38;;;-0.30;99.90;;;;;;4974060;28;20670;-72
2021/12/06 00:55:17;;;;;;;9.95;6.57;;;-0.30;99.90;;;;;;4974133;28;20042;-73
2021/12/06 00:57:45;;;;;;;30.05;6.28;;;-0.30;99.90;;;;;;4974159;28;20047;-72
2021/12/06 01:00:37;;;;;;;52.35;8.13;;;-0.40;99.90;;;;;;4974357;28;20120;-73
2021/12/06 01:03:09;;;;;;;62.38;9.27;;;-0.50;99.90;;;;;;4957815;28;20054;-75
2021/12/06 01:05:43;;;;;;;33.13;7.05;;;-0.70;99.90;;;;;;4958659;28;20046;-71
2021/12/06 01:08:16;;;;;;;9.85;6.50;;;-0.80;99.90;;;;;;4974022;28;20532;-72
2021/12/06 01:10:49;;;;;;;11.25;6.07;;;-0.80;99.90;;;;;;4974320;28;20043;-74
2021/12/06 01:13:26;;;;;;;8.88;6.05;;;-0.80;99.90;;;;;;4973278;28;20047;-72
2021/12/06 01:15:58;;;;;;;10.60;6.25;;;-0.70;99.90;;;;;;4974331;28;20055;-72
2021/12/06 01:18:30;;;;;;;9.55;6.25;;;-0.70;99.90;;;;;;4973803;28;20135;-72
2021/12/06 01:21:13;;;;;;;12.93;7.47;;;-0.60;99.90;;;;;;4974725;28;20113;-72
2021/12/06 01:23:57;;;;;;;11.03;6.27;;;-0.60;99.90;;;;;;4973237;28;20134;-73
2021/12/06 01:40:12;;;;;;;61.45;10.20;;;-0.40;99.90;;;;;;4976473;28;20125;-73
2021/12/06 01:42:44;;;;;;;39.33;8.57;;;-0.40;99.90;;;;;;4958539;28;20078;-73
2021/12/06 01:45:12;;;;;;;127.45;12.63;;;-0.40;99.90;;;;;;4973284;28;20457;-73
2021/12/06 01:47:46;;;;;;;17.42;6.93;;;-0.50;99.90;;;;;;4972763;28;20066;-73
2021/12/06 01:50:28;;;;;;;44.35;10.50;;;-0.50;99.90;;;;;;4974525;28;20038;-73
2021/12/06 01:52:59;;;;;;;71.93;10.57;;;-0.50;99.90;;;;;;4972151;28;20039;-73
2021/12/06 01:55:32;;;;;;;57.40;9.77;;;-0.40;99.90;;;;;;4973210;28;20043;-74
2021/12/06 01:58:01;;;;;;;42.72;9.63;;;-0.40;99.90;;;;;;4973170;28;20453;-73
2021/12/06 02:00:49;;;;;;;38.40;10.63;;;-0.40;99.90;;;;;;4974063;28;20110;-73
2021/12/06 02:03:29;;;;;;;65.35;9.98;;;-0.40;99.90;;;;;;4972143;28;20086;-72
2021/12/06 02:06:02;;;;;;;35.55;8.88;;;-0.40;99.90;;;;;;4957679;28;20211;-73
2021/12/06 02:08:29;;;;;;;128.70;15.45;;;-0.40;99.90;;;;;;4957046;28;20301;-73
2021/12/06 02:11:02;;;;;;;117.40;13.73;;;-0.50;99.90;;;;;;4957273;28;20133;-72
2021/12/06 02:13:42;;;;;;;100.53;12.07;;;-0.50;99.90;;;;;;4956302;28;20058;-73
2021/12/06 02:16:16;;;;;;;41.15;10.10;;;-0.50;99.90;;;;;;4972485;28;20093;-73
2021/12/06 02:18:54;;;;;;;62.78;12.40;;;-0.50;99.90;;;;;;4957118;28;20046;-73
2021/12/06 02:21:28;;;;;;;60.80;12.00;;;-0.50;99.90;;;;;;4972154;28;20053;-73
2021/12/06 02:24:06;;;;;;;49.35;10.18;;;-0.50;99.90;;;;;;4956128;28;20493;-73
2021/12/06 02:26:32;;;;;;;15.57;9.70;;;-0.50;99.90;;;;;;4956431;28;20043;-73
2021/12/06 02:29:07;;;;;;;42.95;12.95;;;-0.50;99.90;;;;;;4957341;28;20041;-73
2021/12/06 02:31:35;;;;;;;46.67;11.32;;;-0.50;99.90;;;;;;4972325;28;20101;-73
2021/12/06 02:34:07;;;;;;;46.60;11.30;;;-0.50;99.90;;;;;;4956494;28;20509;-73
2021/12/06 02:36:33;;;;;;;24.67;9.95;;;-0.50;99.90;;;;;;4972410;28;20469;-73
2021/12/06 02:39:11;;;;;;;44.13;10.88;;;-0.50;99.90;;;;;;4957363;28;20057;-73
2021/12/06 02:41:39;;;;;;;34.38;11.02;;;-0.50;99.90;;;;;;4956099;28;20074;-73
2021/12/06 02:44:11;;;;;;;18.60;9.07;;;-0.60;99.90;;;;;;4971756;28;20067;-73
2021/12/06 02:46:37;;;;;;;41.15;11.82;;;-0.50;99.90;;;;;;4956062;28;20510;-73
2021/12/06 02:49:09;;;;;;;45.33;11.98;;;-0.60;99.90;;;;;;4972134;28;20046;-73
2021/12/06 02:51:42;;;;;;;34.58;11.85;;;-0.60;99.90;;;;;;4956681;28;20526;-73
2021/12/06 02:54:13;;;;;;;25.00;11.48;;;-0.60;99.90;;;;;;4971664;28;20058;-72
2021/12/06 02:59:20;;;;;;;19.58;9.07;;;-0.60;99.90;;;;;;4972266;28;20104;-72
2021/12/06 03:02:02;;;;;;;25.98;11.60;;;-0.60;99.90;;;;;;4971853;28;20528;-73
2021/12/06 03:04:29;;;;;;;41.90;12.55;;;-0.60;99.90;;;;;;4955472;28;20046;-72
2021/12/06 03:07:02;;;;;;;31.13;12.93;;;-0.60;99.90;;;;;;4971682;28;20039;-73
2021/12/06 03:09:37;;;;;;;32.58;12.48;;;-0.60;99.90;;;;;;4971758;28;20039;-73
2021/12/06 03:12:13;;;;;;;23.50;11.65;;;-0.60;99.90;;;;;;4971636;28;20039;-73
2021/12/06 03:14:50;;;;;;;26.58;13.40;;;-0.60;99.90;;;;;;4971457;28;20138;-73
2021/12/06 03:17:28;;;;;;;24.85;13.38;;;-0.60;99.90;;;;;;4971835;28;20043;-73
2021/12/06 03:20:02;;;;;;;20.35;12.40;;;-0.60;99.90;;;;;;4971632;28;20444;-72
2021/12/06 03:22:33;;;;;;;32.07;14.40;;;-0.50;99.90;;;;;;4971708;28;20498;-73
2021/12/06 03:25:04;;;;;;;32.72;14.82;;;-0.50;99.90;;;;;;4970985;28;20047;-72
2021/12/06 03:27:36;;;;;;;34.20;13.07;;;-0.40;99.90;;;;;;4971730;28;20078;-73
2021/12/06 03:30:11;;;;;;;31.25;15.38;;;-0.40;99.90;;;;;;4971425;28;20043;-73
2021/12/06 03:32:44;;;;;;;42.50;15.68;;;-0.40;99.90;;;;;;4971320;28;20057;-73
2021/12/06 03:35:13;;;;;;;28.80;14.35;;;-0.40;99.90;;;;;;4972202;28;20082;-73
2021/12/06 03:37:45;;;;;;;28.42;15.02;;;-0.30;99.90;;;;;;4971377;28;20575;-73
2021/12/06 03:40:13;;;;;;;36.10;16.00;;;-0.30;99.90;;;;;;4955389;28;20046;-73
2021/12/06 03:42:45;;;;;;;30.25;16.17;;;-0.30;99.90;;;;;;4971486;28;20046;-73
2021/12/06 03:45:17;;;;;;;30.13;15.23;;;-0.30;99.90;;;;;;4970823;28;20493;-73
2021/12/06 03:47:49;;;;;;;31.77;16.08;;;-0.30;99.90;;;;;;4955951;28;20065;-73
2021/12/06 03:50:21;;;;;;;26.83;15.68;;;-0.20;99.90;;;;;;4971361;28;20516;-73
2021/12/06 03:52:53;;;;;;;30.10;16.65;;;-0.20;99.90;;;;;;4971143;28;20051;-73
2021/12/06 03:55:25;;;;;;;30.08;16.27;;;-0.10;99.90;;;;;;4955540;28;20055;-73
2021/12/06 03:57:53;;;;;;;26.95;14.38;;;-0.10;99.90;;;;;;4971474;28;20122;-73
2021/12/06 04:00:25;;;;;;;26.00;14.05;;;-0.10;99.90;;;;;;4971391;28;20073;-73
2021/12/06 04:02:56;;;;;;;27.25;15.32;;;0.00;99.90;;;;;;4971125;28;20182;-73
2021/12/06 04:05:28;;;;;;;29.13;14.82;;;0.00;99.90;;;;;;4970839;28;20047;-73
2021/12/06 04:08:00;;;;;;;23.85;14.13;;;0.00;99.90;;;;;;4971116;28;20039;-74
2021/12/06 04:10:32;;;;;;;23.27;13.05;;;0.00;99.90;;;;;;4971017;28;20051;-74
2021/12/06 04:13:00;;;;;;;21.63;13.90;;;0.00;99.90;;;;;;4970913;28;20077;-74
2021/12/06 04:15:35;;;;;;;21.75;13.93;;;0.00;99.90;;;;;;4955561;28;20042;-74
2021/12/06 04:18:02;;;;;;;20.85;14.60;;;0.00;99.90;;;;;;4954967;28;20581;-73
2021/12/06 04:20:30;;;;;;;31.10;15.40;;;0.00;99.90;;;;;;4971116;28;20046;-72
2021/12/06 04:23:05;;;;;;;26.13;14.93;;;0.00;99.90;;;;;;4970749;28;20073;-74
2021/12/06 04:25:34;;;;;;;26.27;15.52;;;0.00;99.90;;;;;;4970647;28;20042;-72
2021/12/06 04:28:06;;;;;;;38.92;20.13;;;0.10;99.90;;;;;;4974817;28;20094;-73
2021/12/06 04:30:38;;;;;;;30.98;16.65;;;0.20;99.90;;;;;;4973868;28;20451;-73
2021/12/06 04:33:11;;;;;;;28.40;17.58;;;0.20;99.90;;;;;;4970673;28;20577;-72
2021/12/06 04:35:38;;;;;;;33.75;17.30;;;0.20;99.90;;;;;;4970663;28;20465;-73
2021/12/06 04:38:10;;;;;;;31.55;16.58;;;0.30;99.90;;;;;;4970979;28;20046;-74
2021/12/06 04:40:43;;;;;;;36.83;20.58;;;0.30;99.90;;;;;;4967339;28;20483;-73
2021/12/06 04:43:15;;;;;;;31.42;17.15;;;0.40;99.90;;;;;;4968239;28;20043;-74
2021/12/06 04:45:47;;;;;;;31.45;16.88;;;0.40;99.90;;;;;;4982180;28;20051;-74
2021/12/06 04:48:19;;;;;;;31.30;17.08;;;0.40;99.90;;;;;;4955254;28;20043;-74
2021/12/06 04:50:46;;;;;;;33.47;17.58;;;0.40;99.90;;;;;;4970133;28;20046;-74
2021/12/06 04:53:24;;;;;;;46.45;18.75;;;0.40;99.90;;;;;;4969634;28;20039;-73
2021/12/06 04:56:11;;;;;;;31.00;17.00;;;0.40;99.90;;;;;;4971107;28;20141;-74
2021/12/06 04:59:14;;;;;;;43.45;17.98;;;0.40;99.90;;;;;;4973835;28;20066;-74
2021/12/06 05:01:52;;;;;;;55.65;26.02;;;0.40;99.90;;;;;;4973429;28;20047;-72
2021/12/06 05:04:30;;;;;;;57.13;31.85;;;0.40;99.90;;;;;;4957697;28;20560;-74
2021/12/06 05:07:16;;;;;;;33.28;19.58;;;0.40;99.90;;;;;;4973408;28;20066;-73
2021/12/06 05:09:49;;;;;;;38.15;17.70;;;0.40;99.90;;;;;;4973747;28;20124;-73
2021/12/06 05:12:24;;;;;;;33.65;17.20;;;0.40;99.90;;;;;;4973256;28;20053;-73
2021/12/06 05:14:56;;;;;;;37.05;19.63;;;0.40;99.90;;;;;;4977319;28;20416;-73
2021/12/06 05:17:26;;;;;;;49.42;24.65;;;0.50;99.90;;;;;;4998992;28;20141;-74
2021/12/06 05:19:59;;;;;;;47.58;22.10;;;0.50;99.90;;;;;;4992114;28;20046;-74
2021/12/06 05:22:27;;;;;;;47.90;23.88;;;0.40;99.90;;;;;;4991858;28;20535;-72
2021/12/06 05:24:54;;;;;;;37.78;19.33;;;0.40;99.90;;;;;;4991839;28;20528;-74
2021/12/06 05:27:29;;;;;;;36.90;18.77;;;0.40;99.90;;;;;;4992101;28;20141;-73
2021/12/06 05:30:04;;;;;;;38.92;17.40;;;0.50;99.90;;;;;;4992321;28;20042;-73
2021/12/06 05:32:35;;;;;;;38.53;18.83;;;0.50;99.90;;;;;;4975888;28;20133;-73
2021/12/06 05:35:07;;;;;;;33.65;17.77;;;0.50;99.90;;;;;;4992268;28;20057;-74
2021/12/06 05:37:43;;;;;;;39.78;20.67;;;0.50;99.90;;;;;;4992412;28;20140;-74
2021/12/06 05:40:21;;;;;;;31.27;17.65;;;0.50;99.90;;;;;;4992616;28;20129;-73
2021/12/06 05:42:54;;;;;;;41.40;19.77;;;0.50;99.90;;;;;;4993547;28;20042;-74
2021/12/06 05:45:28;;;;;;;35.67;18.83;;;0.50;99.90;;;;;;4988383;28;20480;-73
2021/12/06 05:48:00;;;;;;;37.05;19.30;;;0.50;99.90;;;;;;4970991;28;20070;-73
2021/12/06 05:50:32;;;;;;;40.47;19.58;;;0.50;99.90;;;;;;4972736;28;20512;-74
2021/12/06 05:53:04;;;;;;;38.40;21.15;;;0.50;99.90;;;;;;4970348;28;20035;-72
2021/12/06 05:55:36;;;;;;;35.92;19.83;;;0.50;99.90;;;;;;4954209;28;20129;-73
2021/12/06 05:58:09;;;;;;;39.63;19.60;;;0.50;99.90;;;;;;4972307;28;20046;-72
2021/12/06 06:00:42;;;;;;;37.17;20.38;;;0.50;99.90;;;;;;4970832;28;20046;-74
2021/12/06 06:03:10;;;;;;;42.25;21.55;;;0.50;99.90;;;;;;4964277;28;20078;-73
2021/12/06 06:05:42;;;;;;;45.50;19.67;;;0.60;99.90;;;;;;4970160;28;20043;-74
2021/12/06 06:08:09;;;;;;;37.38;18.60;;;0.50;99.90;;;;;;4940763;28;20057;-73
2021/12/06 06:10:36;;;;;;;38.38;19.20;;;0.50;99.90;;;;;;4953356;28;20047;-74
2021/12/06 06:13:08;;;;;;;39.78;17.58;;;0.50;99.90;;;;;;4954538;28;20138;-72
2021/12/06 06:15:41;;;;;;;41.63;18.83;;;0.50;99.90;;;;;;4955410;29;20047;-73
2021/12/06 06:18:13;;;;;;;47.88;20.55;;;0.50;99.90;;;;;;4940118;29;20142;-72
2021/12/06 06:20:48;;;;;;;42.70;18.65;;;0.50;99.90;;;;;;4956327;28;20130;-73
2021/12/06 06:23:22;;;;;;;44.20;18.80;;;0.50;99.90;;;;;;4954712;29;20142;-72
2021/12/06 06:25:54;;;;;;;36.03;15.52;;;0.40;99.90;;;;;;4954852;29;20039;-74
2021/12/06 06:28:26;;;;;;;45.75;19.73;;;0.40;99.90;;;;;;4954976;29;20043;-73
2021/12/06 06:30:58;;;;;;;51.08;20.17;;;0.40;99.90;;;;;;4960391;28;20121;-73
2021/12/06 06:33:25;;;;;;;57.22;21.80;;;0.40;99.90;;;;;;4970862;28;20577;-73
2021/12/06 06:35:56;;;;;;;44.85;20.70;;;0.50;99.90;;;;;;4971081;28;20047;-73
2021/12/06 06:38:28;;;;;;;50.03;21.13;;;0.50;99.90;;;;;;4957446;28;20047;-74
2021/12/06 06:41:01;;;;;;;46.70;20.20;;;0.50;99.90;;;;;;4952915;29;20150;-74
2021/12/06 06:43:35;;;;;;;46.50;22.70;;;0.50;99.90;;;;;;4940002;28;20062;-74
2021/12/06 06:46:06;;;;;;;46.17;21.27;;;0.50;99.90;;;;;;4973146;28;20110;-72
2021/12/06 06:48:33;;;;;;;43.05;19.92;;;0.50;99.90;;;;;;4970323;28;20053;-73
2021/12/06 06:51:05;;;;;;;55.70;21.48;;;0.50;99.90;;;;;;4956749;28;20125;-74
2021/12/06 06:53:37;;;;;;;43.17;20.27;;;0.50;99.90;;;;;;4975833;28;20039;-73
2021/12/06 06:56:09;;;;;;;43.05;20.63;;;0.50;99.90;;;;;;4968136;28;20122;-73
2021/12/06 06:58:36;;;;;;;44.75;20.38;;;0.50;99.90;;;;;;4967942;28;20138;-73
2021/12/06 07:01:10;;;;;;;39.65;18.95;;;0.50;99.90;;;;;;4971461;28;20050;-73
2021/12/06 07:03:36;;;;;;;44.83;20.48;;;0.50;99.90;;;;;;4968642;28;20477;-72
2021/12/06 07:06:08;;;;;;;43.30;19.33;;;0.50;99.90;;;;;;4971314;28;20142;-73
2021/12/06 07:08:42;;;;;;;37.35;17.63;;;0.50;99.90;;;;;;4966520;28;20069;-73
2021/12/06 07:11:14;;;;;;;40.60;18.63;;;0.50;99.90;;;;;;4972771;28;20038;-73
2021/12/06 07:13:43;;;;;;;41.40;18.35;;;0.50;99.90;;;;;;4975788;28;20064;-73
2021/12/06 07:16:16;;;;;;;34.78;17.85;;;0.50;99.90;;;;;;4952417;28;20051;-74
2021/12/06 07:18:49;;;;;;;38.75;17.50;;;0.50;99.90;;;;;;4965987;28;20044;-72
2021/12/06 07:21:17;;;;;;;32.63;16.17;;;0.50;99.90;;;;;;4986296;28;20046;-73
2021/12/06 07:23:45;;;;;;;35.92;17.42;;;0.50;99.90;;;;;;4971953;28;20071;-72
2021/12/06 07:26:17;;;;;;;33.05;17.50;;;0.60;99.90;;;;;;4987964;28;20073;-73
2021/12/06 07:28:51;;;;;;;37.75;17.73;;;0.60;99.90;;;;;;4971961;28;20133;-73
2021/12/06 07:31:18;;;;;;;34.97;16.83;;;0.60;99.90;;;;;;4988002;28;20502;-73
2021/12/06 07:33:47;;;;;;;37.83;17.88;;;0.60;99.90;;;;;;4971685;28;20121;-73
2021/12/06 07:36:22;;;;;;;35.72;18.92;;;0.60;99.90;;;;;;4973864;28;20129;-73
2021/12/06 07:38:50;;;;;;;35.03;19.17;;;0.70;99.90;;;;;;4971002;28;20414;-73
2021/12/06 07:41:23;;;;;;;31.95;17.65;;;0.70;99.90;;;;;;4970335;28;20498;-72
2021/12/06 07:43:50;;;;;;;32.35;18.80;;;0.70;99.90;;;;;;4970868;28;20051;-74
2021/12/06 07:46:23;;;;;;;33.15;17.33;;;0.70;99.90;;;;;;4970698;28;20078;-73
2021/12/06 07:48:55;;;;;;;32.58;17.35;;;0.70;99.90;;;;;;4971919;28;20039;-72
2021/12/06 07:51:23;;;;;;;36.75;17.88;;;0.70;99.90;;;;;;4970734;28;20122;-73
2021/12/06 07:53:56;;;;;;;34.33;18.50;;;0.70;99.90;;;;;;4970950;28;20097;-73
2021/12/06 07:56:24;;;;;;;32.67;16.67;;;0.80;99.90;;;;;;4970989;28;20082;-74
2021/12/06 07:58:56;;;;;;;32.05;17.13;;;0.70;99.90;;;;;;4971631;28;20046;-73
2021/12/06 08:01:28;;;;;;;32.47;17.33;;;0.80;99.90;;;;;;4954666;28;20112;-75
2021/12/06 08:04:01;;;;;;;34.08;16.65;;;0.80;99.90;;;;;;4984075;28;20601;-74
2021/12/06 08:06:28;;;;;;;31.90;18.10;;;0.80;99.90;;;;;;4973895;28;20084;-73
2021/12/06 08:08:54;;;;;;;37.08;18.98;;;0.80;99.90;;;;;;4970541;28;20039;-74
2021/12/06 08:11:26;;;;;;;31.55;16.50;;;0.80;99.90;;;;;;4967416;28;20046;-74
2021/12/06 08:13:54;;;;;;;35.58;19.02;;;0.80;99.90;;;;;;4955277;28;20053;-74
2021/12/06 08:16:28;;;;;;;33.80;16.98;;;0.80;99.90;;;;;;4969299;28;20039;-74
2021/12/06 08:19:00;;;;;;;37.08;19.10;;;0.80;99.90;;;;;;4966559;28;20077;-73
2021/12/06 08:21:27;;;;;;;29.02;15.77;;;0.80;99.90;;;;;;4955697;28;20055;-74
2021/12/06 08:24:02;;;;;;;33.60;16.45;;;0.80;99.90;;;;;;4966121;28;20122;-73
2021/12/06 08:26:39;;;;;;;32.83;16.98;;;0.80;99.90;;;;;;4956374;28;20047;-73
2021/12/06 08:29:15;;;;;;;35.42;15.45;;;0.80;99.90;;;;;;4972881;28;20133;-73
2021/12/06 08:31:44;;;;;;;28.85;14.77;;;0.80;99.90;;;;;;4981144;28;20047;-73
2021/12/06 08:34:12;;;;;;;30.00;15.02;;;0.80;99.90;;;;;;4957394;28;20054;-73
2021/12/06 08:36:43;;;;;;;31.80;16.30;;;0.80;99.90;;;;;;4971150;28;20051;-73
2021/12/06 08:39:10;;;;;;;29.75;16.10;;;0.80;99.90;;;;;;4971940;28;20482;-73
2021/12/06 08:41:37;;;;;;;35.28;17.38;;;0.80;99.90;;;;;;4971481;28;20122;-73
2021/12/06 08:44:04;;;;;;;33.80;15.95;;;0.80;99.90;;;;;;4965662;28;20043;-73
2021/12/06 08:46:39;;;;;;;31.60;16.52;;;0.90;99.90;;;;;;4956175;28;20043;-73
2021/12/06 08:49:09;;;;;;;37.92;17.83;;;0.90;99.90;;;;;;4969912;28;20118;-74
2021/12/06 08:51:44;;;;;;;49.78;23.35;;;1.00;99.90;;;;;;4966701;28;20476;-73
2021/12/06 08:54:19;;;;;;;33.58;16.58;;;1.00;99.90;;;;;;4968750;28;20046;-73
2021/12/06 08:56:48;;;;;;;31.00;17.25;;;1.00;99.90;;;;;;4972089;28;20051;-73
2021/12/06 08:59:16;;;;;;;32.55;15.25;;;1.00;99.90;;;;;;4966084;28;20489;-73
2021/12/06 09:01:48;;;;;;;34.08;16.95;;;1.00;99.90;;;;;;4968087;28;20126;-73
2021/12/06 09:04:22;;;;;;;32.72;15.55;;;1.10;99.90;;;;;;4966820;28;20075;-73
2021/12/06 09:06:51;;;;;;;32.92;14.38;;;1.10;99.90;;;;;;4973209;28;20125;-73
2021/12/06 09:09:23;;;;;;;36.67;17.08;;;1.10;99.90;;;;;;4965888;28;20085;-73
2021/12/06 09:11:52;;;;;;;33.55;15.60;;;1.10;99.90;;;;;;4972966;28;20125;-73
2021/12/06 09:14:25;;;;;;;31.92;16.33;;;1.10;99.90;;;;;;4966984;28;20729;-73
2021/12/06 09:16:57;;;;;;;37.10;17.58;;;1.10;99.90;;;;;;4999518;28;20086;-73
2021/12/06 09:19:23;;;;;;;37.65;16.00;;;1.10;99.90;;;;;;4987704;28;20154;-72
2021/12/06 09:21:50;;;;;;;40.95;17.92;;;1.10;99.90;;;;;;4985767;28;20063;-72
2021/12/06 09:24:22;;;;;;;34.35;15.25;;;1.20;99.90;;;;;;4955375;28;20123;-72
2021/12/06 09:26:54;;;;;;;40.70;17.70;;;1.20;99.90;;;;;;4955744;29;20039;-72
2021/12/06 09:29:26;;;;;;;36.97;17.35;;;1.20;99.90;;;;;;4957520;28;20138;-72
2021/12/06 09:32:00;;;;;;;28.55;12.57;;;1.20;99.90;;;;;;4973744;28;20060;-72
2021/12/06 09:34:28;;;;;;;35.47;16.67;;;1.30;99.90;;;;;;4964713;28;20074;-72
2021/12/06 09:37:01;;;;;;;35.10;15.05;;;1.30;99.90;;;;;;4989912;28;20050;-73
2021/12/06 09:39:28;;;;;;;39.45;16.35;;;1.30;99.90;;;;;;4973619;28;20046;-73
2021/12/06 09:42:01;;;;;;;38.60;17.17;;;1.30;99.90;;;;;;4967319;28;20049;-73
2021/12/06 09:44:34;;;;;;;38.92;16.92;;;1.40;99.90;;;;;;4957578;28;20141;-73
2021/12/06 09:47:06;;;;;;;36.88;15.93;;;1.40;99.90;;;;;;4973110;28;20210;-74
2021/12/06 09:49:38;;;;;;;37.58;15.25;;;1.40;99.90;;;;;;4988436;28;20043;-73
2021/12/06 09:52:11;;;;;;;42.95;17.00;;;1.50;99.90;;;;;;4968740;28;20142;-73
2021/12/06 09:54:44;;;;;;;;;;;1.40;99.90;;;;;;4978002;28;20054;-72
2021/12/06 09:57:16;;;;;;;42.35;16.67;;;1.40;99.90;;;;;;4961146;28;19960;-72
2021/12/06 09:59:48;;;;;;;41.75;17.88;;;1.40;99.90;;;;;;4964331;28;20101;-73
2021/12/06 10:02:21;;;;;;;41.97;16.60;;;1.40;99.90;;;;;;4971241;28;20142;-73
2021/12/06 10:04:56;;;;;;;45.33;17.35;;;1.40;99.90;;;;;;4972233;28;20043;-73
2021/12/06 10:07:31;;;;;;;43.45;16.17;;;1.50;99.90;;;;;;4988421;28;20043;-73
2021/12/06 10:10:09;;;;;;;35.67;13.23;;;1.40;99.90;;;;;;4974340;28;20502;-73
2021/12/06 10:12:36;;;;;;;42.35;15.75;;;1.50;99.90;;;;;;4970680;28;20097;-73
2021/12/06 10:15:05;;;;;;;44.45;16.88;;;1.50;99.90;;;;;;4973190;28;20066;-73
2021/12/06 10:17:37;;;;;;;37.13;16.42;;;1.50;99.90;;;;;;4976159;28;20125;-73
2021/12/06 10:20:06;;;;;;;43.47;16.95;;;1.60;99.90;;;;;;4973321;28;20498;-73
2021/12/06 10:22:38;;;;;;;40.63;17.00;;;1.70;99.90;;;;;;4972123;28;20502;-73
2021/12/06 10:25:07;;;;;;;32.15;14.55;;;1.70;99.90;;;;;;4967782;28;20071;-73
2021/12/06 10:27:49;;;;;;;;;;;1.70;99.90;;;;;;4967754;28;20505;-73
2021/12/06 10:30:16;;;;;;;26.75;12.27;;;1.70;99.90;;;;;;4970445;28;19954;-73
2021/12/06 10:32:48;;;;;;;25.25;11.50;;;1.70;99.90;;;;;;4971751;28;20062;-73
2021/12/06 10:35:23;;;;;;;25.50;13.35;;;1.70;99.90;;;;;;4969429;28;20087;-73
2021/12/06 10:37:57;;;;;;;26.60;13.68;;;1.80;99.90;;;;;;4954330;28;20079;-73
2021/12/06 10:40:27;;;;;;;25.98;11.38;;;1.80;99.90;;;;;;4967948;28;20082;-73
2021/12/06 10:43:02;;;;;;;29.85;14.77;;;1.90;99.90;;;;;;4972262;28;20105;-73
2021/12/06 10:45:34;;;;;;;32.50;13.88;;;1.90;99.90;;;;;;4971771;28;20035;-73
2021/12/06 10:48:16;;;;;;;30.42;13.50;;;1.90;99.90;;;;;;4968881;28;20042;-73
2021/12/06 10:50:55;;;;;;;22.20;11.77;;;1.90;99.90;;;;;;4973450;28;20485;-73
2021/12/06 10:53:39;;;;;;;25.77;13.13;;;1.90;99.90;;;;;;4972945;28;20130;-72
2021/12/06 10:56:20;;;;;;;30.48;14.00;;;1.90;99.90;;;;;;4966797;28;20105;-73
2021/12/06 10:58:50;;;;;;;27.65;14.02;;;1.90;99.90;;;;;;4953060;28;20417;-72
2021/12/06 11:01:24;;;;;;;30.40;14.23;;;1.90;99.90;;;;;;4965927;28;20494;-73
2021/12/06 11:03:54;;;;;;;36.38;16.40;;;2.00;99.90;;;;;;4969719;28;20509;-73
2021/12/06 11:06:30;;;;;;;32.88;14.63;;;1.90;99.90;;;;;;4970120;28;20047;-73
2021/12/06 11:09:05;;;;;;;33.00;14.73;;;2.00;99.90;;;;;;4972293;28;20446;-73
2021/12/06 11:11:40;;;;;;;36.13;16.13;;;2.20;99.90;;;;;;4969281;28;20426;-73
2021/12/06 11:14:19;;;;;;;40.17;16.58;;;2.20;99.90;;;;;;4957328;28;20043;-73
2021/12/06 11:16:53;;;;;;;31.30;16.25;;;2.20;99.90;;;;;;4951693;28;20493;-73
2021/12/06 11:19:23;;;;;;;35.75;15.45;;;2.10;99.90;;;;;;4955298;28;20049;-73
2021/12/06 11:21:58;;;;;;;29.70;13.93;;;2.10;99.90;;;;;;4970273;28;20074;-73
2021/12/06 11:24:41;;;;;;;29.30;12.35;;;2.10;99.90;;;;;;4969507;28;20475;-73
2021/12/06 11:27:22;;;;;;;24.05;12.27;;;2.00;99.90;;;;;;4969548;28;20069;-73
2021/12/06 11:29:54;;;;;;;29.15;14.15;;;1.90;99.90;;;;;;4953355;28;20134;-73
2021/12/06 11:32:32;;;;;;;27.58;12.88;;;2.00;99.90;;;;;;4975618;28;20050;-73
2021/12/06 11:35:13;;;;;;;25.92;12.77;;;2.00;99.90;;;;;;4969795;28;20038;-73
2021/12/06 11:37:51;;;;;;;26.38;12.90;;;2.00;99.90;;;;;;4963627;28;20047;-73
2021/12/06 11:40:33;;;;;;;28.65;13.80;;;2.00;99.90;;;;;;4961762;28;20125;-73
2021/12/06 11:43:08;;;;;;;29.77;15.63;;;2.00;99.90;;;;;;4966105;28;20035;-72
2021/12/06 11:45:52;;;;;;;26.17;12.85;;;2.00;99.90;;;;;;4952759;28;20043;-73
2021/12/06 11:48:29;;;;;;;24.02;11.27;;;2.10;99.90;;;;;;4955502;28;20054;-73
2021/12/06 11:51:09;;;;;;;24.85;12.48;;;2.10;99.90;;;;;;4967801;28;20053;-73
2021/12/06 11:53:55;;;;;;;22.50;10.90;;;2.20;99.90;;;;;;4970271;28;20070;-73
2021/12/06 11:56:33;;;;;;;22.15;11.10;;;2.20;99.90;;;;;;4968170;28;20122;-73
2021/12/06 11:59:04;;;;;;;21.75;12.27;;;2.20;99.90;;;;;;4951548;28;20106;-73
2021/12/06 12:01:41;;;;;;;24.65;11.80;;;2.30;99.90;;;;;;4965161;28;20126;-73
2021/12/06 12:04:22;;;;;;;23.77;12.65;;;2.30;99.90;;;;;;4951737;28;20137;-73
2021/12/06 12:07:00;;;;;;;22.15;11.52;;;2.30;99.90;;;;;;4971219;28;20042;-72
2021/12/06 12:09:35;;;;;;;23.60;10.85;;;2.30;99.90;;;;;;4967905;28;20073;-73
2021/12/06 12:12:07;;;;;;;27.10;12.40;;;2.30;99.90;;;;;;4976305;28;20485;-73
2021/12/06 12:14:58;;;;;;;25.85;12.23;;;2.20;99.90;;;;;;4952995;28;20074;-73
2021/12/06 12:17:34;;;;;;;29.25;13.40;;;2.20;99.90;;;;;;4958110;28;20569;-73
2021/12/06 12:20:10;;;;;;;26.30;13.30;;;2.20;99.90;;;;;;4957468;28;20047;-73
2021/12/06 12:22:38;;;;;;;30.58;13.75;;;2.20;99.90;;;;;;4955179;28;20118;-73
2021/12/06 12:25:11;;;;;;;20.73;12.25;;;2.20;99.90;;;;;;4955481;28;20051;-74
2021/12/06 12:27:54;;;;;;;21.08;11.05;;;2.20;99.90;;;;;;4958381;28;20520;-72
2021/12/06 12:30:32;;;;;;;26.35;12.82;;;2.20;99.90;;;;;;4974983;28;20047;-73
2021/12/06 12:33:07;;;;;;;22.50;12.18;;;2.20;99.90;;;;;;4973954;28;20055;-73
2021/12/06 12:35:44;;;;;;;18.25;9.65;;;2.30;99.90;;;;;;4973771;28;20493;-73
2021/12/06 12:38:24;;;;;;;23.45;11.23;;;2.20;99.90;;;;;;4974094;28;20049;-72
2021/12/06 12:40:54;;;;;;;20.30;10.65;;;2.30;99.90;;;;;;4975264;28;20093;-74
2021/12/06 12:43:39;;;;;;;18.90;10.25;;;2.40;99.90;;;;;;4969196;28;20573;-73
2021/12/06 12:46:11;;;;;;;19.08;10.23;;;2.50;99.90;;;;;;4968667;28;20532;-73
2021/12/06 12:48:57;;;;;;;21.48;10.07;;;2.50;99.90;;;;;;4938624;29;20106;-72
2021/12/06 12:51:32;;;;;;;15.73;9.50;;;2.60;99.90;;;;;;4972304;28;20034;-72
2021/12/06 12:54:07;;;;;;;16.60;9.32;;;2.60;99.90;;;;;;4962138;28;20047;-72
2021/12/06 12:56:43;;;;;;;17.80;10.50;;;2.60;99.90;;;;;;4971279;28;20469;-72
2021/12/06 12:59:29;;;;;;;19.05;11.25;;;2.60;99.90;;;;;;4974213;28;20038;-72
2021/12/06 13:02:20;;;;;;;78.38;36.78;;;2.50;99.90;;;;;;4983272;28;20100;-72
2021/12/06 13:04:58;;;;;;;22.58;12.65;;;2.50;99.90;;;;;;4970756;28;20134;-73
2021/12/06 13:07:50;;;;;;;21.48;11.68;;;2.50;99.90;;;;;;4971052;28;20034;-72
2021/12/06 13:10:22;;;;;;;18.58;9.88;;;2.60;99.90;;;;;;4964666;28;20043;-72
2021/12/06 13:13:01;;;;;;;19.03;8.57;;;2.50;99.90;;;;;;4959580;28;20094;-72
2021/12/06 13:15:48;;;;;;;20.38;11.20;;;2.50;99.90;;;;;;4953684;29;20512;-74
2021/12/06 13:18:31;;;;;;;20.95;11.05;;;2.60;99.90;;;;;;4954828;28;20043;-74
2021/12/06 13:21:29;;;;;;;20.90;10.45;;;2.60;99.90;;;;;;4954739;29;20050;-72
2021/12/06 13:24:13;;;;;;;21.15;10.77;;;2.70;99.90;;;;;;4954368;28;20066;-72